sensor_id;sensor_type;location;lat;lon;timestamp;temperature;humidity
52513;DHT22;38422;53.172;6.974;2023-02-17T00:01:58;8.90;99.90
52513;DHT22;38422;53.172;6.974;2023-02-17T00:04:23;8.80;99.90
52513;DHT22;38422;53.172;6.974;2023-02-17T00:06:49;8.80;99.90
52513;DHT22;38422;53.172;6.974;2023-02-17T00:09:14;8.90;99.90
52513;DHT22;38422;53.172;6.974;2023-02-17T00:11:40;8.90;99.90
52513;DHT22;38422;53.172;6.974;2023-02-17T00:14:05;8.90;99.90
52513;DHT22;38422;53.172;6.974;2023-02-17T00:16:32;8.90;99.90
52513;DHT22;38422;53.172;6.974;2023-02-17T00:19:00;8.90;99.90
52513;DHT22;38422;53.172;6.974;2023-02-17T00:21:29;8.80;99.90
52513;DHT22;38422;53.172;6.974;2023-02-17T00:23:56;8.90;99.90
52513;DHT22;38422;53.172;6.974;2023-02-17T00:26:22;8.90;99.90
52513;DHT22;38422;53.172;6.974;2023-02-17T00:28:48;8.80;99.90
52513;DHT22;38422;53.172;6.974;2023-02-17T00:31:15;8.80;99.90
52513;DHT22;38422;53.172;6.974;2023-02-17T00:33:41;8.80;99.90
52513;DHT22;38422;53.172;6.974;2023-02-17T00:36:09;8.90;99.90
52513;DHT22;38422;53.172;6.974;2023-02-17T00:38:35;8.90;99.90
52513;DHT22;38422;53.172;6.974;2023-02-17T00:41:00;8.90;99.90
52513;DHT22;38422;53.172;6.974;2023-02-17T00:43:26;8.90;99.90
52513;DHT22;38422;53.172;6.974;2023-02-17T00:45:51;8.90;99.90
52513;DHT22;38422;53.172;6.974;2023-02-17T00:48:17;8.90;99.90
52513;DHT22;38422;53.172;6.974;2023-02-17T00:50:42;8.90;99.90
52513;DHT22;38422;53.172;6.974;2023-02-17T00:53:08;8.90;99.90
52513;DHT22;38422;53.172;6.974;2023-02-17T00:55:33;8.90;99.90
52513;DHT22;38422;53.172;6.974;2023-02-17T00:57:59;8.90;99.90
52513;DHT22;38422;53.172;6.974;2023-02-17T01:00:25;8.90;99.90
52513;DHT22;38422;53.172;6.974;2023-02-17T01:02:50;9.00;99.90
52513;DHT22;38422;53.172;6.974;2023-02-17T01:05:16;9.00;99.90
52513;DHT22;38422;53.172;6.974;2023-02-17T01:07:41;8.90;99.90
52513;DHT22;38422;53.172;6.974;2023-02-17T01:10:08;9.00;99.90
52513;DHT22;38422;53.172;6.974;2023-02-17T01:12:33;9.00;99.90
52513;DHT22;38422;53.172;6.974;2023-02-17T01:14:59;8.90;99.90
52513;DHT22;38422;53.172;6.974;2023-02-17T01:17:25;9.00;99.90
52513;DHT22;38422;53.172;6.974;2023-02-17T01:19:51;9.00;99.90
52513;DHT22;38422;53.172;6.974;2023-02-17T01:22:16;9.00;99.90
52513;DHT22;38422;53.172;6.974;2023-02-17T01:24:42;9.00;99.90
52513;DHT22;38422;53.172;6.974;2023-02-17T01:27:07;9.00;99.90
52513;DHT22;38422;53.172;6.974;2023-02-17T01:29:33;9.00;99.90
52513;DHT22;38422;53.172;6.974;2023-02-17T01:31:59;9.00;99.90
52513;DHT22;38422;53.172;6.974;2023-02-17T01:34:24;9.00;99.90
52513;DHT22;38422;53.172;6.974;2023-02-17T01:36:50;9.10;99.90
52513;DHT22;38422;53.172;6.974;2023-02-17T01:39:15;9.10;99.90
52513;DHT22;38422;53.172;6.974;2023-02-17T01:41:41;9.00;99.90
52513;DHT22;38422;53.172;6.974;2023-02-17T01:44:20;9.00;99.90
52513;DHT22;38422;53.172;6.974;2023-02-17T01:46:48;9.10;99.90
52513;DHT22;38422;53.172;6.974;2023-02-17T01:51:39;9.10;99.90
52513;DHT22;38422;53.172;6.974;2023-02-17T01:54:10;9.10;99.90
52513;DHT22;38422;53.172;6.974;2023-02-17T01:56:37;9.10;99.90
52513;DHT22;38422;53.172;6.974;2023-02-17T01:59:06;9.10;99.90
52513;DHT22;38422;53.172;6.974;2023-02-17T02:01:32;9.10;99.90
52513;DHT22;38422;53.172;6.974;2023-02-17T02:03:59;9.10;99.90
52513;DHT22;38422;53.172;6.974;2023-02-17T02:06:26;9.10;99.90
52513;DHT22;38422;53.172;6.974;2023-02-17T02:08:54;9.20;99.90
52513;DHT22;38422;53.172;6.974;2023-02-17T02:11:21;9.10;99.90
52513;DHT22;38422;53.172;6.974;2023-02-17T02:13:47;9.10;99.90
52513;DHT22;38422;53.172;6.974;2023-02-17T02:16:18;9.20;99.90
52513;DHT22;38422;53.172;6.974;2023-02-17T02:18:50;9.20;99.90
52513;DHT22;38422;53.172;6.974;2023-02-17T02:21:37;9.20;99.90
52513;DHT22;38422;53.172;6.974;2023-02-17T02:24:13;9.20;99.90
52513;DHT22;38422;53.172;6.974;2023-02-17T02:34:55;9.20;99.90
52513;DHT22;38422;53.172;6.974;2023-02-17T02:37:24;9.20;99.90
52513;DHT22;38422;53.172;6.974;2023-02-17T02:39:51;9.30;99.90
52513;DHT22;38422;53.172;6.974;2023-02-17T02:42:18;9.20;99.90
52513;DHT22;38422;53.172;6.974;2023-02-17T02:44:45;9.30;99.90
52513;DHT22;38422;53.172;6.974;2023-02-17T02:50:35;9.20;99.90
52513;DHT22;38422;53.172;6.974;2023-02-17T02:58:35;9.30;99.90
52513;DHT22;38422;53.172;6.974;2023-02-17T03:03:29;9.30;99.90
52513;DHT22;38422;53.172;6.974;2023-02-17T03:06:05;9.30;99.90
52513;DHT22;38422;53.172;6.974;2023-02-17T03:09:08;9.30;99.90
52513;DHT22;38422;53.172;6.974;2023-02-17T03:11:25;9.30;99.90
52513;DHT22;38422;53.172;6.974;2023-02-17T03:14:03;9.30;99.90
52513;DHT22;38422;53.172;6.974;2023-02-17T03:16:29;9.30;99.90
52513;DHT22;38422;53.172;6.974;2023-02-17T03:18:55;9.30;99.90
52513;DHT22;38422;53.172;6.974;2023-02-17T03:21:21;9.30;99.90
52513;DHT22;38422;53.172;6.974;2023-02-17T03:23:46;9.30;99.90
52513;DHT22;38422;53.172;6.974;2023-02-17T03:26:12;9.30;99.90
52513;DHT22;38422;53.172;6.974;2023-02-17T03:28:37;9.40;99.90
52513;DHT22;38422;53.172;6.974;2023-02-17T03:31:03;9.30;99.90
52513;DHT22;38422;53.172;6.974;2023-02-17T03:33:28;9.30;99.90
52513;DHT22;38422;53.172;6.974;2023-02-17T03:35:54;9.30;99.90
52513;DHT22;38422;53.172;6.974;2023-02-17T03:38:19;9.30;99.90
52513;DHT22;38422;53.172;6.974;2023-02-17T03:40:45;9.30;99.90
52513;DHT22;38422;53.172;6.974;2023-02-17T03:43:11;9.30;99.90
52513;DHT22;38422;53.172;6.974;2023-02-17T03:45:36;9.30;99.90
52513;DHT22;38422;53.172;6.974;2023-02-17T03:48:02;9.30;99.90
52513;DHT22;38422;53.172;6.974;2023-02-17T03:50:28;9.30;99.90
52513;DHT22;38422;53.172;6.974;2023-02-17T03:52:53;9.30;99.90
52513;DHT22;38422;53.172;6.974;2023-02-17T03:55:19;9.30;99.90
52513;DHT22;38422;53.172;6.974;2023-02-17T03:57:44;9.30;99.90
52513;DHT22;38422;53.172;6.974;2023-02-17T04:00:10;9.30;99.90
52513;DHT22;38422;53.172;6.974;2023-02-17T04:02:36;9.30;99.90
52513;DHT22;38422;53.172;6.974;2023-02-17T04:05:01;9.30;99.90
52513;DHT22;38422;53.172;6.974;2023-02-17T04:07:27;9.30;99.90
52513;DHT22;38422;53.172;6.974;2023-02-17T04:09:53;9.30;99.90
52513;DHT22;38422;53.172;6.974;2023-02-17T04:12:18;9.30;99.90
52513;DHT22;38422;53.172;6.974;2023-02-17T04:14:44;9.30;99.90
52513;DHT22;38422;53.172;6.974;2023-02-17T04:17:09;9.30;99.90
52513;DHT22;38422;53.172;6.974;2023-02-17T04:19:35;9.30;99.90
52513;DHT22;38422;53.172;6.974;2023-02-17T04:22:01;9.20;99.90
52513;DHT22;38422;53.172;6.974;2023-02-17T04:24:26;9.30;99.90
52513;DHT22;38422;53.172;6.974;2023-02-17T04:26:52;9.20;99.90
52513;DHT22;38422;53.172;6.974;2023-02-17T04:29:17;9.30;99.90
52513;DHT22;38422;53.172;6.974;2023-02-17T04:31:43;9.20;99.90
52513;DHT22;38422;53.172;6.974;2023-02-17T04:34:09;9.20;99.90
52513;DHT22;38422;53.172;6.974;2023-02-17T04:36:34;9.20;99.90
52513;DHT22;38422;53.172;6.974;2023-02-17T04:39:00;9.20;99.90
52513;DHT22;38422;53.172;6.974;2023-02-17T04:41:25;9.30;99.90
52513;DHT22;38422;53.172;6.974;2023-02-17T04:43:51;9.30;99.90
52513;DHT22;38422;53.172;6.974;2023-02-17T04:46:16;9.30;99.90
52513;DHT22;38422;53.172;6.974;2023-02-17T04:48:42;9.20;99.90
52513;DHT22;38422;53.172;6.974;2023-02-17T04:51:07;9.20;99.90
52513;DHT22;38422;53.172;6.974;2023-02-17T04:53:33;9.30;99.90
52513;DHT22;38422;53.172;6.974;2023-02-17T04:55:59;9.30;99.90
52513;DHT22;38422;53.172;6.974;2023-02-17T04:58:24;9.30;99.90
52513;DHT22;38422;53.172;6.974;2023-02-17T05:00:50;9.20;99.90
52513;DHT22;38422;53.172;6.974;2023-02-17T05:03:16;9.20;99.90
52513;DHT22;38422;53.172;6.974;2023-02-17T05:05:42;9.20;99.90
52513;DHT22;38422;53.172;6.974;2023-02-17T05:08:08;9.20;99.90
52513;DHT22;38422;53.172;6.974;2023-02-17T05:10:33;9.20;99.90
52513;DHT22;38422;53.172;6.974;2023-02-17T05:12:59;9.20;99.90
52513;DHT22;38422;53.172;6.974;2023-02-17T05:15:24;9.20;99.90
52513;DHT22;38422;53.172;6.974;2023-02-17T05:17:50;9.30;99.90
52513;DHT22;38422;53.172;6.974;2023-02-17T05:20:16;9.20;99.90
52513;DHT22;38422;53.172;6.974;2023-02-17T05:22:41;9.20;99.90
52513;DHT22;38422;53.172;6.974;2023-02-17T05:25:07;9.20;99.90
52513;DHT22;38422;53.172;6.974;2023-02-17T05:27:32;9.20;99.90
52513;DHT22;38422;53.172;6.974;2023-02-17T05:29:58;9.20;99.90
52513;DHT22;38422;53.172;6.974;2023-02-17T05:32:24;9.10;99.90
52513;DHT22;38422;53.172;6.974;2023-02-17T05:34:49;9.10;99.90
52513;DHT22;38422;53.172;6.974;2023-02-17T05:37:15;9.10;99.90
52513;DHT22;38422;53.172;6.974;2023-02-17T05:39:40;9.10;99.90
52513;DHT22;38422;53.172;6.974;2023-02-17T05:42:06;9.00;99.90
52513;DHT22;38422;53.172;6.974;2023-02-17T05:44:32;9.00;99.90
52513;DHT22;38422;53.172;6.974;2023-02-17T05:46:57;9.00;99.90
52513;DHT22;38422;53.172;6.974;2023-02-17T05:49:23;9.00;99.90
52513;DHT22;38422;53.172;6.974;2023-02-17T05:51:48;8.90;99.90
52513;DHT22;38422;53.172;6.974;2023-02-17T05:54:14;8.90;99.90
52513;DHT22;38422;53.172;6.974;2023-02-17T05:56:39;8.90;99.90
52513;DHT22;38422;53.172;6.974;2023-02-17T05:59:05;8.90;99.90
52513;DHT22;38422;53.172;6.974;2023-02-17T06:01:31;8.90;99.90
52513;DHT22;38422;53.172;6.974;2023-02-17T06:03:56;8.90;99.90
52513;DHT22;38422;53.172;6.974;2023-02-17T06:06:22;8.90;99.90
52513;DHT22;38422;53.172;6.974;2023-02-17T06:08:47;8.80;99.90
52513;DHT22;38422;53.172;6.974;2023-02-17T06:11:13;8.90;99.90
52513;DHT22;38422;53.172;6.974;2023-02-17T06:13:39;8.90;99.90
52513;DHT22;38422;53.172;6.974;2023-02-17T06:16:04;8.80;99.90
52513;DHT22;38422;53.172;6.974;2023-02-17T06:18:30;8.90;99.90
52513;DHT22;38422;53.172;6.974;2023-02-17T06:20:56;8.90;99.90
52513;DHT22;38422;53.172;6.974;2023-02-17T06:23:22;8.80;99.90
52513;DHT22;38422;53.172;6.974;2023-02-17T06:25:47;8.90;99.90
52513;DHT22;38422;53.172;6.974;2023-02-17T06:28:13;8.90;99.90
52513;DHT22;38422;53.172;6.974;2023-02-17T06:30:39;8.90;99.90
52513;DHT22;38422;53.172;6.974;2023-02-17T06:33:04;8.90;99.90
52513;DHT22;38422;53.172;6.974;2023-02-17T06:35:30;8.80;99.90
52513;DHT22;38422;53.172;6.974;2023-02-17T06:37:55;8.90;99.90
52513;DHT22;38422;53.172;6.974;2023-02-17T06:40:21;8.90;99.90
52513;DHT22;38422;53.172;6.974;2023-02-17T06:42:47;8.90;99.90
52513;DHT22;38422;53.172;6.974;2023-02-17T06:45:12;8.90;99.90
52513;DHT22;38422;53.172;6.974;2023-02-17T06:47:38;8.90;99.90
52513;DHT22;38422;53.172;6.974;2023-02-17T06:50:04;8.90;99.90
52513;DHT22;38422;53.172;6.974;2023-02-17T06:52:29;8.90;99.90
52513;DHT22;38422;53.172;6.974;2023-02-17T06:54:55;8.90;99.90
52513;DHT22;38422;53.172;6.974;2023-02-17T06:57:20;8.90;99.90
52513;DHT22;38422;53.172;6.974;2023-02-17T06:59:46;8.90;99.90
52513;DHT22;38422;53.172;6.974;2023-02-17T07:02:12;9.00;99.90
52513;DHT22;38422;53.172;6.974;2023-02-17T07:04:39;9.00;99.90
52513;DHT22;38422;53.172;6.974;2023-02-17T07:07:04;9.00;99.90
52513;DHT22;38422;53.172;6.974;2023-02-17T07:09:33;9.00;99.90
52513;DHT22;38422;53.172;6.974;2023-02-17T07:11:59;9.00;99.90
52513;DHT22;38422;53.172;6.974;2023-02-17T07:14:25;9.00;99.90
52513;DHT22;38422;53.172;6.974;2023-02-17T07:16:50;9.00;99.90
52513;DHT22;38422;53.172;6.974;2023-02-17T07:19:16;9.10;99.90
52513;DHT22;38422;53.172;6.974;2023-02-17T07:21:41;9.10;99.90
52513;DHT22;38422;53.172;6.974;2023-02-17T07:24:07;9.10;99.90
52513;DHT22;38422;53.172;6.974;2023-02-17T07:26:36;9.10;99.90
52513;DHT22;38422;53.172;6.974;2023-02-17T07:29:03;9.10;99.90
52513;DHT22;38422;53.172;6.974;2023-02-17T07:31:28;9.20;99.90
52513;DHT22;38422;53.172;6.974;2023-02-17T07:33:54;9.20;99.90
52513;DHT22;38422;53.172;6.974;2023-02-17T07:36:20;9.20;99.90
52513;DHT22;38422;53.172;6.974;2023-02-17T07:38:45;9.20;99.90
52513;DHT22;38422;53.172;6.974;2023-02-17T07:41:15;9.20;99.90
52513;DHT22;38422;53.172;6.974;2023-02-17T07:43:41;9.20;99.90
52513;DHT22;38422;53.172;6.974;2023-02-17T07:46:07;9.30;99.90
52513;DHT22;38422;53.172;6.974;2023-02-17T07:48:33;9.30;99.90
52513;DHT22;38422;53.172;6.974;2023-02-17T07:51:06;9.30;99.90
52513;DHT22;38422;53.172;6.974;2023-02-17T07:53:32;9.40;99.90
52513;DHT22;38422;53.172;6.974;2023-02-17T07:55:58;9.40;99.90
52513;DHT22;38422;53.172;6.974;2023-02-17T07:58:23;9.40;99.90
52513;DHT22;38422;53.172;6.974;2023-02-17T08:00:49;9.40;99.90
52513;DHT22;38422;53.172;6.974;2023-02-17T08:03:14;9.40;99.90
52513;DHT22;38422;53.172;6.974;2023-02-17T08:05:40;9.40;99.90
52513;DHT22;38422;53.172;6.974;2023-02-17T08:08:06;9.50;99.90
52513;DHT22;38422;53.172;6.974;2023-02-17T08:10:50;9.50;99.90
52513;DHT22;38422;53.172;6.974;2023-02-17T08:13:35;9.50;99.90
52513;DHT22;38422;53.172;6.974;2023-02-17T08:16:01;9.50;99.90
52513;DHT22;38422;53.172;6.974;2023-02-17T08:18:27;9.60;99.90
52513;DHT22;38422;53.172;6.974;2023-02-17T08:20:52;9.60;99.90
52513;DHT22;38422;53.172;6.974;2023-02-17T08:23:18;9.60;99.90
52513;DHT22;38422;53.172;6.974;2023-02-17T08:25:44;9.60;99.90
52513;DHT22;38422;53.172;6.974;2023-02-17T08:28:10;9.60;99.90
52513;DHT22;38422;53.172;6.974;2023-02-17T08:30:35;9.70;99.90
52513;DHT22;38422;53.172;6.974;2023-02-17T08:33:03;9.70;99.90
52513;DHT22;38422;53.172;6.974;2023-02-17T08:35:28;9.80;99.90
52513;DHT22;38422;53.172;6.974;2023-02-17T08:37:54;9.80;99.90
52513;DHT22;38422;53.172;6.974;2023-02-17T08:40:19;9.80;99.90
52513;DHT22;38422;53.172;6.974;2023-02-17T08:42:45;9.80;99.90
52513;DHT22;38422;53.172;6.974;2023-02-17T08:45:12;9.90;99.90
52513;DHT22;38422;53.172;6.974;2023-02-17T08:47:37;9.90;99.90
52513;DHT22;38422;53.172;6.974;2023-02-17T08:50:04;9.90;99.90
52513;DHT22;38422;53.172;6.974;2023-02-17T08:52:29;10.00;99.90
52513;DHT22;38422;53.172;6.974;2023-02-17T08:54:55;9.90;99.90
52513;DHT22;38422;53.172;6.974;2023-02-17T08:57:21;10.00;99.90
52513;DHT22;38422;53.172;6.974;2023-02-17T08:59:47;10.00;99.90
52513;DHT22;38422;53.172;6.974;2023-02-17T09:02:13;10.00;99.90
52513;DHT22;38422;53.172;6.974;2023-02-17T09:04:39;10.00;99.90
52513;DHT22;38422;53.172;6.974;2023-02-17T09:07:07;10.10;99.90
52513;DHT22;38422;53.172;6.974;2023-02-17T09:09:33;10.10;99.90
52513;DHT22;38422;53.172;6.974;2023-02-17T09:11:59;10.20;99.90
52513;DHT22;38422;53.172;6.974;2023-02-17T09:14:25;10.20;99.90
52513;DHT22;38422;53.172;6.974;2023-02-17T09:16:51;10.20;99.90
52513;DHT22;38422;53.172;6.974;2023-02-17T09:19:17;10.20;99.90
52513;DHT22;38422;53.172;6.974;2023-02-17T09:21:42;10.30;99.90
52513;DHT22;38422;53.172;6.974;2023-02-17T09:24:08;10.30;99.90
52513;DHT22;38422;53.172;6.974;2023-02-17T09:26:33;10.30;99.90
52513;DHT22;38422;53.172;6.974;2023-02-17T09:29:00;10.40;99.90
52513;DHT22;38422;53.172;6.974;2023-02-17T09:31:26;10.40;99.90
52513;DHT22;38422;53.172;6.974;2023-02-17T09:33:52;10.40;99.90
52513;DHT22;38422;53.172;6.974;2023-02-17T09:36:19;10.40;99.90
52513;DHT22;38422;53.172;6.974;2023-02-17T09:38:45;10.40;99.90
52513;DHT22;38422;53.172;6.974;2023-02-17T09:43:39;10.50;99.90
52513;DHT22;38422;53.172;6.974;2023-02-17T09:46:07;10.50;99.90
52513;DHT22;38422;53.172;6.974;2023-02-17T09:48:34;10.50;99.90
52513;DHT22;38422;53.172;6.974;2023-02-17T09:51:05;10.50;99.90
52513;DHT22;38422;53.172;6.974;2023-02-17T09:53:38;10.50;99.90
52513;DHT22;38422;53.172;6.974;2023-02-17T09:56:07;10.50;99.90
52513;DHT22;38422;53.172;6.974;2023-02-17T09:58:40;10.50;99.90
52513;DHT22;38422;53.172;6.974;2023-02-17T10:01:14;10.50;99.90
52513;DHT22;38422;53.172;6.974;2023-02-17T10:03:42;10.50;99.90
52513;DHT22;38422;53.172;6.974;2023-02-17T10:06:20;10.50;99.90
52513;DHT22;38422;53.172;6.974;2023-02-17T10:11:15;10.50;99.90
52513;DHT22;38422;53.172;6.974;2023-02-17T10:13:43;10.50;99.90
52513;DHT22;38422;53.172;6.974;2023-02-17T10:16:10;10.50;99.90
52513;DHT22;38422;53.172;6.974;2023-02-17T10:18:44;10.50;99.90
52513;DHT22;38422;53.172;6.974;2023-02-17T10:21:24;10.50;99.90
52513;DHT22;38422;53.172;6.974;2023-02-17T10:23:51;10.50;99.90
52513;DHT22;38422;53.172;6.974;2023-02-17T10:29:18;10.50;99.90
52513;DHT22;38422;53.172;6.974;2023-02-17T10:31:45;10.40;99.90
52513;DHT22;38422;53.172;6.974;2023-02-17T10:37:31;10.50;99.90
52513;DHT22;38422;53.172;6.974;2023-02-17T10:39:50;10.50;99.90
52513;DHT22;38422;53.172;6.974;2023-02-17T10:42:20;10.50;99.90
52513;DHT22;38422;53.172;6.974;2023-02-17T10:44:48;10.50;99.90
52513;DHT22;38422;53.172;6.974;2023-02-17T10:47:15;10.50;99.90
52513;DHT22;38422;53.172;6.974;2023-02-17T10:49:42;10.50;99.90
52513;DHT22;38422;53.172;6.974;2023-02-17T10:54:40;10.60;99.90
52513;DHT22;38422;53.172;6.974;2023-02-17T10:57:09;10.60;99.90
52513;DHT22;38422;53.172;6.974;2023-02-17T10:59:40;10.60;99.90
52513;DHT22;38422;53.172;6.974;2023-02-17T11:02:21;10.60;99.90
52513;DHT22;38422;53.172;6.974;2023-02-17T11:04:48;10.60;99.90
52513;DHT22;38422;53.172;6.974;2023-02-17T11:07:15;10.60;99.90
52513;DHT22;38422;53.172;6.974;2023-02-17T11:09:48;10.60;99.90
52513;DHT22;38422;53.172;6.974;2023-02-17T11:12:17;10.70;99.90
52513;DHT22;38422;53.172;6.974;2023-02-17T11:14:46;10.70;99.90
52513;DHT22;38422;53.172;6.974;2023-02-17T11:17:14;10.70;99.90
52513;DHT22;38422;53.172;6.974;2023-02-17T11:19:40;10.70;99.90
52513;DHT22;38422;53.172;6.974;2023-02-17T11:22:27;10.70;99.90
52513;DHT22;38422;53.172;6.974;2023-02-17T11:24:59;10.70;99.90
52513;DHT22;38422;53.172;6.974;2023-02-17T11:27:25;10.70;99.90
52513;DHT22;38422;53.172;6.974;2023-02-17T11:29:51;10.70;99.90
52513;DHT22;38422;53.172;6.974;2023-02-17T11:32:16;10.70;99.90
52513;DHT22;38422;53.172;6.974;2023-02-17T11:34:44;10.70;99.90
52513;DHT22;38422;53.172;6.974;2023-02-17T11:37:21;10.70;99.90
52513;DHT22;38422;53.172;6.974;2023-02-17T11:39:52;10.70;99.90
52513;DHT22;38422;53.172;6.974;2023-02-17T11:44:46;10.70;99.90
52513;DHT22;38422;53.172;6.974;2023-02-17T12:00:15;10.90;99.90
52513;DHT22;38422;53.172;6.974;2023-02-17T12:02:46;10.90;99.90
52513;DHT22;38422;53.172;6.974;2023-02-17T12:05:24;11.00;99.90
52513;DHT22;38422;53.172;6.974;2023-02-17T12:07:57;11.10;99.90
52513;DHT22;38422;53.172;6.974;2023-02-17T12:16:06;11.20;99.90
52513;DHT22;38422;53.172;6.974;2023-02-17T12:21:07;11.20;99.90
52513;DHT22;38422;53.172;6.974;2023-02-17T12:26:08;11.30;99.90
52513;DHT22;38422;53.172;6.974;2023-02-17T12:36:13;11.40;99.90
52513;DHT22;38422;53.172;6.974;2023-02-17T12:38:43;11.40;99.90
52513;DHT22;38422;53.172;6.974;2023-02-17T12:41:16;11.50;99.90
52513;DHT22;38422;53.172;6.974;2023-02-17T12:46:15;11.50;99.90
52513;DHT22;38422;53.172;6.974;2023-02-17T12:48:48;11.50;99.90
52513;DHT22;38422;53.172;6.974;2023-02-17T12:53:51;11.50;99.90
52513;DHT22;38422;53.172;6.974;2023-02-17T12:58:49;11.60;99.90
52513;DHT22;38422;53.172;6.974;2023-02-17T13:01:15;11.60;99.90
52513;DHT22;38422;53.172;6.974;2023-02-17T13:03:44;11.60;99.90
52513;DHT22;38422;53.172;6.974;2023-02-17T13:11:02;11.80;99.90
52513;DHT22;38422;53.172;6.974;2023-02-17T13:13:29;11.80;99.90
52513;DHT22;38422;53.172;6.974;2023-02-17T13:16:05;11.90;99.90
52513;DHT22;38422;53.172;6.974;2023-02-17T13:18:32;12.00;99.90
52513;DHT22;38422;53.172;6.974;2023-02-17T13:21:25;12.00;99.90
52513;DHT22;38422;53.172;6.974;2023-02-17T13:24:03;12.00;99.90
52513;DHT22;38422;53.172;6.974;2023-02-17T13:26:30;12.10;99.90
52513;DHT22;38422;53.172;6.974;2023-02-17T13:31:43;12.10;99.90
52513;DHT22;38422;53.172;6.974;2023-02-17T13:34:09;12.10;99.90
52513;DHT22;38422;53.172;6.974;2023-02-17T13:36:35;12.10;99.90
52513;DHT22;38422;53.172;6.974;2023-02-17T13:39:28;12.10;99.90
52513;DHT22;38422;53.172;6.974;2023-02-17T13:41:47;12.20;99.90
52513;DHT22;38422;53.172;6.974;2023-02-17T13:44:32;12.20;99.90
52513;DHT22;38422;53.172;6.974;2023-02-17T13:47:02;12.30;99.90
52513;DHT22;38422;53.172;6.974;2023-02-17T13:49:29;12.30;99.90
52513;DHT22;38422;53.172;6.974;2023-02-17T13:54:56;12.40;99.90
52513;DHT22;38422;53.172;6.974;2023-02-17T13:57:23;12.60;99.90
52513;DHT22;38422;53.172;6.974;2023-02-17T13:59:49;12.70;99.90
52513;DHT22;38422;53.172;6.974;2023-02-17T14:02:18;12.70;99.90
52513;DHT22;38422;53.172;6.974;2023-02-17T14:04:44;12.90;99.90
52513;DHT22;38422;53.172;6.974;2023-02-17T14:07:10;13.00;99.90
52513;DHT22;38422;53.172;6.974;2023-02-17T14:09:36;13.30;99.90
52513;DHT22;38422;53.172;6.974;2023-02-17T14:12:03;13.30;99.90
52513;DHT22;38422;53.172;6.974;2023-02-17T14:14:30;13.40;99.90
52513;DHT22;38422;53.172;6.974;2023-02-17T14:17:04;13.30;99.90
52513;DHT22;38422;53.172;6.974;2023-02-17T14:19:40;13.20;99.90
52513;DHT22;38422;53.172;6.974;2023-02-17T14:22:06;13.00;99.90
52513;DHT22;38422;53.172;6.974;2023-02-17T14:24:33;12.80;99.90
52513;DHT22;38422;53.172;6.974;2023-02-17T14:29:41;12.60;99.90
52513;DHT22;38422;53.172;6.974;2023-02-17T14:34:51;12.40;99.90
52513;DHT22;38422;53.172;6.974;2023-02-17T14:37:18;12.40;99.90
52513;DHT22;38422;53.172;6.974;2023-02-17T14:39:46;12.40;99.90
52513;DHT22;38422;53.172;6.974;2023-02-17T14:42:12;12.40;99.90
52513;DHT22;38422;53.172;6.974;2023-02-17T14:44:38;12.30;99.90
52513;DHT22;38422;53.172;6.974;2023-02-17T14:47:03;12.40;99.90
52513;DHT22;38422;53.172;6.974;2023-02-17T14:49:29;12.30;99.90
52513;DHT22;38422;53.172;6.974;2023-02-17T14:51:55;12.40;99.90
52513;DHT22;38422;53.172;6.974;2023-02-17T14:54:20;12.40;99.90
52513;DHT22;38422;53.172;6.974;2023-02-17T14:56:52;12.40;99.90
52513;DHT22;38422;53.172;6.974;2023-02-17T14:59:22;12.40;99.90
52513;DHT22;38422;53.172;6.974;2023-02-17T15:01:47;12.40;99.90
52513;DHT22;38422;53.172;6.974;2023-02-17T15:04:13;12.50;99.90
52513;DHT22;38422;53.172;6.974;2023-02-17T15:06:39;12.40;99.90
52513;DHT22;38422;53.172;6.974;2023-02-17T15:09:13;12.40;99.90
52513;DHT22;38422;53.172;6.974;2023-02-17T15:11:39;12.40;99.90
52513;DHT22;38422;53.172;6.974;2023-02-17T15:14:05;12.20;99.90
52513;DHT22;38422;53.172;6.974;2023-02-17T15:16:31;12.20;99.90
52513;DHT22;38422;53.172;6.974;2023-02-17T15:18:57;12.10;99.90
52513;DHT22;38422;53.172;6.974;2023-02-17T15:23:48;12.10;99.90
52513;DHT22;38422;53.172;6.974;2023-02-17T15:26:14;12.00;99.90
52513;DHT22;38422;53.172;6.974;2023-02-17T15:28:39;11.90;99.90
52513;DHT22;38422;53.172;6.974;2023-02-17T15:31:05;11.80;99.90
52513;DHT22;38422;53.172;6.974;2023-02-17T15:33:30;11.80;99.90
52513;DHT22;38422;53.172;6.974;2023-02-17T15:35:56;11.70;99.90
52513;DHT22;38422;53.172;6.974;2023-02-17T15:38:22;11.80;99.90
52513;DHT22;38422;53.172;6.974;2023-02-17T15:40:48;11.70;99.90
52513;DHT22;38422;53.172;6.974;2023-02-17T15:43:14;11.60;99.90
52513;DHT22;38422;53.172;6.974;2023-02-17T15:45:40;11.50;99.90
52513;DHT22;38422;53.172;6.974;2023-02-17T15:48:25;11.40;99.90
52513;DHT22;38422;53.172;6.974;2023-02-17T15:50:51;11.30;99.90
52513;DHT22;38422;53.172;6.974;2023-02-17T15:53:17;11.30;99.90
52513;DHT22;38422;53.172;6.974;2023-02-17T15:55:42;11.20;99.90
52513;DHT22;38422;53.172;6.974;2023-02-17T15:58:12;11.10;99.90
52513;DHT22;38422;53.172;6.974;2023-02-17T16:00:39;11.10;99.90
52513;DHT22;38422;53.172;6.974;2023-02-17T16:03:04;11.00;99.90
52513;DHT22;38422;53.172;6.974;2023-02-17T16:05:30;10.90;99.90
52513;DHT22;38422;53.172;6.974;2023-02-17T16:07:57;10.90;99.90
52513;DHT22;38422;53.172;6.974;2023-02-17T16:10:24;10.80;99.90
52513;DHT22;38422;53.172;6.974;2023-02-17T16:12:54;10.70;99.90
52513;DHT22;38422;53.172;6.974;2023-02-17T16:15:21;10.70;99.90
52513;DHT22;38422;53.172;6.974;2023-02-17T16:17:47;10.60;99.90
52513;DHT22;38422;53.172;6.974;2023-02-17T16:22:43;10.50;99.90
52513;DHT22;38422;53.172;6.974;2023-02-17T16:25:08;10.50;99.90
52513;DHT22;38422;53.172;6.974;2023-02-17T16:27:35;10.40;99.90
52513;DHT22;38422;53.172;6.974;2023-02-17T16:30:00;10.40;99.90
52513;DHT22;38422;53.172;6.974;2023-02-17T16:32:26;10.30;99.90
52513;DHT22;38422;53.172;6.974;2023-02-17T16:34:52;10.30;99.90
52513;DHT22;38422;53.172;6.974;2023-02-17T16:37:17;10.30;99.90
52513;DHT22;38422;53.172;6.974;2023-02-17T17:56:59;9.10;99.90
52513;DHT22;38422;53.172;6.974;2023-02-17T17:59:25;9.10;99.90
52513;DHT22;38422;53.172;6.974;2023-02-17T18:01:51;9.10;99.90
52513;DHT22;38422;53.172;6.974;2023-02-17T18:04:17;9.10;99.90
52513;DHT22;38422;53.172;6.974;2023-02-17T18:06:45;9.10;99.90
52513;DHT22;38422;53.172;6.974;2023-02-17T18:09:16;9.10;99.90
52513;DHT22;38422;53.172;6.974;2023-02-17T18:11:43;9.10;99.90
52513;DHT22;38422;53.172;6.974;2023-02-17T18:14:10;9.00;99.90
52513;DHT22;38422;53.172;6.974;2023-02-17T18:16:37;9.00;99.90
52513;DHT22;38422;53.172;6.974;2023-02-17T18:19:05;9.00;99.90
52513;DHT22;38422;53.172;6.974;2023-02-17T18:21:31;8.90;99.90
52513;DHT22;38422;53.172;6.974;2023-02-17T18:23:57;9.00;99.90
52513;DHT22;38422;53.172;6.974;2023-02-17T18:26:23;8.90;99.90
52513;DHT22;38422;53.172;6.974;2023-02-17T18:28:49;8.90;99.90
52513;DHT22;38422;53.172;6.974;2023-02-17T18:31:15;8.90;99.90
52513;DHT22;38422;53.172;6.974;2023-02-17T18:33:41;8.80;99.90
52513;DHT22;38422;53.172;6.974;2023-02-17T18:36:12;8.80;99.90